Forside
METAR-TAF:

METAR-TAF

Lufthavne :

Pohnpei, Mikronesien

Breddekreds: 06-59N, længdekreds: 158-12E, højde: 2 m

Aktuelle vejr

Denne rapport blev lavet for 13 minutter siden, kl. 23:54 UTC
Vind 8 kt fra nordvest
Temperatur 29°C
Fugtighed 79%
Tryk 1010 hPa
Sigt: 24.1 km
Spredte skyer i en højde af 1800 ft
Spredte skyer i en højde af 13000 ft
Brudte skyer i en højde af 30000 ft

METAR: PTPN 202354Z 31008KT 15SM SCT018 SCT130 BKN300 29/25 A2982

Tid: 11:07 (00:07 UTC)

Vejrudsigter

Denne rapport blev lavet for 31 minutter siden, kl. 23:36 UTC
Foreløbig gælder fra 21 på 00 UTC til 21 på 24 UTC
Vind 4 kt fra nord
Sigt: 10 km
Spredte skyer i en højde af 1800 ft
Brudte skyer i en højde af 13000 ft
Brudte skyer i en højde af 30000 ft
byger i nærheden

TAF: PTPN 202336Z 2100/2124 36004KT P6SM VCSH SCT018 BKN130 BKN300

Vejrobservationer og prognoser fra mere end 4000 lufthavne (METAR og TAF).

De gule og røde prikker repræsenterer de meteorologiske stationer.

Flyt musen over at se navnet på stationen.

Så klik over at se vejr observationer og prognoser.

At skifte det kort: Klik på de grønne knapper med et sort kors for at zoome ind; på den grønne knap med en bindestreg for at zoome ud; eller på de grønne pile for tilstødende kort.


METAR-TAF: